sensor_id;sensor_type;location;lat;lon;timestamp;temperature;humidity
76291;DHT22;65100;46.884;17.410;2022-12-18T00:01:49;0.06;78.99
76291;DHT22;65100;46.884;17.410;2022-12-18T00:04:20;0.01;79.53
76291;DHT22;65100;46.884;17.410;2022-12-18T00:06:45;0.01;78.92
76291;DHT22;65100;46.884;17.410;2022-12-18T00:09:11;-0.01;79.15
76291;DHT22;65100;46.884;17.410;2022-12-18T00:11:36;-0.02;79.51
76291;DHT22;65100;46.884;17.410;2022-12-18T00:14:02;-0.06;78.83
76291;DHT22;65100;46.884;17.410;2022-12-18T00:16:28;-0.03;79.36
76291;DHT22;65100;46.884;17.410;2022-12-18T00:18:56;-0.03;78.65
76291;DHT22;65100;46.884;17.410;2022-12-18T00:21:22;-0.03;78.99
76291;DHT22;65100;46.884;17.410;2022-12-18T00:23:49;-0.01;78.44
76291;DHT22;65100;46.884;17.410;2022-12-18T00:26:20;-0.02;78.70
76291;DHT22;65100;46.884;17.410;2022-12-18T00:28:47;0.04;79.17
76291;DHT22;65100;46.884;17.410;2022-12-18T00:31:18;0.08;78.64
76291;DHT22;65100;46.884;17.410;2022-12-18T00:33:44;0.05;78.36
76291;DHT22;65100;46.884;17.410;2022-12-18T00:36:12;0.02;78.06
76291;DHT22;65100;46.884;17.410;2022-12-18T00:38:39;0.05;78.22
76291;DHT22;65100;46.884;17.410;2022-12-18T00:41:06;0.04;78.57
76291;DHT22;65100;46.884;17.410;2022-12-18T00:43:32;0.05;77.65
76291;DHT22;65100;46.884;17.410;2022-12-18T00:45:57;0.05;78.11
76291;DHT22;65100;46.884;17.410;2022-12-18T00:48:22;-0.02;77.94
76291;DHT22;65100;46.884;17.410;2022-12-18T00:50:49;-0.02;77.78
76291;DHT22;65100;46.884;17.410;2022-12-18T00:53:15;-0.03;77.64
76291;DHT22;65100;46.884;17.410;2022-12-18T00:55:41;-0.03;78.57
76291;DHT22;65100;46.884;17.410;2022-12-18T00:58:08;-0.06;77.91
76291;DHT22;65100;46.884;17.410;2022-12-18T01:00:35;-0.09;77.89
76291;DHT22;65100;46.884;17.410;2022-12-18T01:03:00;-0.10;78.11
76291;DHT22;65100;46.884;17.410;2022-12-18T01:05:26;-0.10;77.60
76291;DHT22;65100;46.884;17.410;2022-12-18T01:07:52;-0.12;77.34
76291;DHT22;65100;46.884;17.410;2022-12-18T01:10:17;-0.23;77.30
76291;DHT22;65100;46.884;17.410;2022-12-18T01:12:43;-0.22;76.22
76291;DHT22;65100;46.884;17.410;2022-12-18T01:15:10;-0.28;76.17
76291;DHT22;65100;46.884;17.410;2022-12-18T01:17:36;-0.22;76.25
76291;DHT22;65100;46.884;17.410;2022-12-18T01:20:01;-0.19;76.30
76291;DHT22;65100;46.884;17.410;2022-12-18T01:22:27;-0.23;75.98
76291;DHT22;65100;46.884;17.410;2022-12-18T01:24:52;-0.25;76.29
76291;DHT22;65100;46.884;17.410;2022-12-18T01:27:18;-0.22;76.88
76291;DHT22;65100;46.884;17.410;2022-12-18T01:29:43;-0.26;76.23
76291;DHT22;65100;46.884;17.410;2022-12-18T01:32:09;-0.36;75.99
76291;DHT22;65100;46.884;17.410;2022-12-18T01:34:37;-0.29;76.19
76291;DHT22;65100;46.884;17.410;2022-12-18T01:37:04;-0.30;76.55
76291;DHT22;65100;46.884;17.410;2022-12-18T01:39:30;-0.30;76.15
76291;DHT22;65100;46.884;17.410;2022-12-18T01:41:58;-0.40;76.34
76291;DHT22;65100;46.884;17.410;2022-12-18T01:44:53;-0.37;76.19
76291;DHT22;65100;46.884;17.410;2022-12-18T01:50:10;-0.41;75.90
76291;DHT22;65100;46.884;17.410;2022-12-18T01:52:40;-0.52;75.96
76291;DHT22;65100;46.884;17.410;2022-12-18T01:55:08;-0.54;76.25
76291;DHT22;65100;46.884;17.410;2022-12-18T01:57:34;-0.63;76.89
76291;DHT22;65100;46.884;17.410;2022-12-18T02:00:06;-0.60;77.13
76291;DHT22;65100;46.884;17.410;2022-12-18T02:02:32;-0.64;77.05
76291;DHT22;65100;46.884;17.410;2022-12-18T02:04:58;-0.54;76.54
76291;DHT22;65100;46.884;17.410;2022-12-18T02:12:59;-0.59;76.87
76291;DHT22;65100;46.884;17.410;2022-12-18T02:15:44;-0.63;76.46
76291;DHT22;65100;46.884;17.410;2022-12-18T02:18:15;-0.84;77.48
76291;DHT22;65100;46.884;17.410;2022-12-18T02:20:47;-0.77;77.43
76291;DHT22;65100;46.884;17.410;2022-12-18T02:29:03;-0.61;76.25
76291;DHT22;65100;46.884;17.410;2022-12-18T02:31:35;-0.56;76.55
76291;DHT22;65100;46.884;17.410;2022-12-18T02:34:03;-0.64;76.54
76291;DHT22;65100;46.884;17.410;2022-12-18T02:36:32;-0.60;76.42
76291;DHT22;65100;46.884;17.410;2022-12-18T02:38:59;-0.79;76.94
76291;DHT22;65100;46.884;17.410;2022-12-18T02:41:26;-0.66;76.57
76291;DHT22;65100;46.884;17.410;2022-12-18T02:43:57;-0.54;76.11
76291;DHT22;65100;46.884;17.410;2022-12-18T02:46:33;-0.56;75.87
76291;DHT22;65100;46.884;17.410;2022-12-18T03:01:38;-0.57;75.60
76291;DHT22;65100;46.884;17.410;2022-12-18T03:04:16;-0.59;75.25
76291;DHT22;65100;46.884;17.410;2022-12-18T03:06:49;-0.56;75.31
76291;DHT22;65100;46.884;17.410;2022-12-18T03:09:22;-0.57;75.66
76291;DHT22;65100;46.884;17.410;2022-12-18T03:11:55;-0.57;75.12
76291;DHT22;65100;46.884;17.410;2022-12-18T03:14:41;-0.56;75.13
76291;DHT22;65100;46.884;17.410;2022-12-18T03:17:13;-0.66;75.53
76291;DHT22;65100;46.884;17.410;2022-12-18T03:19:40;-0.63;75.33
76291;DHT22;65100;46.884;17.410;2022-12-18T03:22:07;-0.61;75.10
76291;DHT22;65100;46.884;17.410;2022-12-18T03:24:33;-0.71;75.31
76291;DHT22;65100;46.884;17.410;2022-12-18T03:27:02;-0.74;75.53
76291;DHT22;65100;46.884;17.410;2022-12-18T03:29:57;-0.67;75.53
76291;DHT22;65100;46.884;17.410;2022-12-18T03:32:29;-0.83;76.08
76291;DHT22;65100;46.884;17.410;2022-12-18T03:34:58;-0.93;76.84
76291;DHT22;65100;46.884;17.410;2022-12-18T03:37:26;-1.03;77.18
76291;DHT22;65100;46.884;17.410;2022-12-18T03:39:52;-1.31;77.63
76291;DHT22;65100;46.884;17.410;2022-12-18T03:42:24;-1.45;78.18
76291;DHT22;65100;46.884;17.410;2022-12-18T03:55:35;-2.16;80.86
76291;DHT22;65100;46.884;17.410;2022-12-18T03:58:03;-2.33;83.04
76291;DHT22;65100;46.884;17.410;2022-12-18T04:00:29;-2.39;82.41
76291;DHT22;65100;46.884;17.410;2022-12-18T04:02:56;-2.33;82.81
76291;DHT22;65100;46.884;17.410;2022-12-18T04:05:24;-2.39;82.70
76291;DHT22;65100;46.884;17.410;2022-12-18T04:07:51;-2.30;82.90
76291;DHT22;65100;46.884;17.410;2022-12-18T04:10:18;-2.30;82.34
76291;DHT22;65100;46.884;17.410;2022-12-18T04:12:43;-2.37;82.91
76291;DHT22;65100;46.884;17.410;2022-12-18T04:15:10;-2.29;82.67
76291;DHT22;65100;46.884;17.410;2022-12-18T04:17:36;-2.46;83.33
76291;DHT22;65100;46.884;17.410;2022-12-18T04:20:02;-2.36;83.11
76291;DHT22;65100;46.884;17.410;2022-12-18T04:22:28;-2.37;83.79
76291;DHT22;65100;46.884;17.410;2022-12-18T04:24:53;-2.26;83.41
76291;DHT22;65100;46.884;17.410;2022-12-18T04:27:19;-2.30;83.13
76291;DHT22;65100;46.884;17.410;2022-12-18T04:29:44;-2.34;83.24
76291;DHT22;65100;46.884;17.410;2022-12-18T04:32:10;-2.26;83.98
76291;DHT22;65100;46.884;17.410;2022-12-18T04:34:35;-2.05;82.76
76291;DHT22;65100;46.884;17.410;2022-12-18T04:37:01;-1.83;80.73
76291;DHT22;65100;46.884;17.410;2022-12-18T04:39:26;-1.89;80.79
76291;DHT22;65100;46.884;17.410;2022-12-18T04:41:52;-1.92;80.52
76291;DHT22;65100;46.884;17.410;2022-12-18T04:44:17;-1.63;79.68
76291;DHT22;65100;46.884;17.410;2022-12-18T04:46:43;-1.75;78.79
76291;DHT22;65100;46.884;17.410;2022-12-18T04:49:09;-1.79;77.65
76291;DHT22;65100;46.884;17.410;2022-12-18T04:51:35;-2.05;76.83
76291;DHT22;65100;46.884;17.410;2022-12-18T04:54:01;-2.94;80.65
76291;DHT22;65100;46.884;17.410;2022-12-18T04:56:27;-3.18;82.65
76291;DHT22;65100;46.884;17.410;2022-12-18T04:58:52;-3.16;82.14
76291;DHT22;65100;46.884;17.410;2022-12-18T05:01:18;-3.25;82.80
76291;DHT22;65100;46.884;17.410;2022-12-18T05:03:44;-3.05;82.36
76291;DHT22;65100;46.884;17.410;2022-12-18T05:06:09;-2.54;80.83
76291;DHT22;65100;46.884;17.410;2022-12-18T05:08:35;-2.64;80.43
76291;DHT22;65100;46.884;17.410;2022-12-18T05:11:08;-2.54;80.14
76291;DHT22;65100;46.884;17.410;2022-12-18T05:13:34;-2.99;81.94
76291;DHT22;65100;46.884;17.410;2022-12-18T05:16:00;-3.04;83.18
76291;DHT22;65100;46.884;17.410;2022-12-18T05:18:27;-2.98;80.78
76291;DHT22;65100;46.884;17.410;2022-12-18T05:20:53;-3.16;81.95
76291;DHT22;65100;46.884;17.410;2022-12-18T05:23:20;-3.22;83.30
76291;DHT22;65100;46.884;17.410;2022-12-18T05:25:56;-2.91;83.30
76291;DHT22;65100;46.884;17.410;2022-12-18T05:28:23;-3.02;82.71
76291;DHT22;65100;46.884;17.410;2022-12-18T05:30:50;-2.92;82.71
76291;DHT22;65100;46.884;17.410;2022-12-18T05:33:16;-3.08;82.58
76291;DHT22;65100;46.884;17.410;2022-12-18T05:35:42;-3.13;81.15
76291;DHT22;65100;46.884;17.410;2022-12-18T05:38:07;-3.45;82.08
76291;DHT22;65100;46.884;17.410;2022-12-18T05:40:33;-2.94;80.71
76291;DHT22;65100;46.884;17.410;2022-12-18T05:42:58;-2.97;81.48
76291;DHT22;65100;46.884;17.410;2022-12-18T05:45:24;-3.16;82.06
76291;DHT22;65100;46.884;17.410;2022-12-18T05:47:49;-3.13;81.09
76291;DHT22;65100;46.884;17.410;2022-12-18T05:50:15;-3.16;81.71
76291;DHT22;65100;46.884;17.410;2022-12-18T05:52:40;-3.22;82.15
76291;DHT22;65100;46.884;17.410;2022-12-18T05:55:06;-3.38;81.66
76291;DHT22;65100;46.884;17.410;2022-12-18T05:57:31;-3.43;81.83
76291;DHT22;65100;46.884;17.410;2022-12-18T05:59:57;-3.79;84.38
76291;DHT22;65100;46.884;17.410;2022-12-18T06:02:22;-3.52;82.39
76291;DHT22;65100;46.884;17.410;2022-12-18T06:04:48;-3.53;83.26
76291;DHT22;65100;46.884;17.410;2022-12-18T06:07:13;-3.12;80.54
76291;DHT22;65100;46.884;17.410;2022-12-18T06:09:39;-2.98;80.76
76291;DHT22;65100;46.884;17.410;2022-12-18T06:12:04;-3.08;80.28
76291;DHT22;65100;46.884;17.410;2022-12-18T06:14:30;-3.25;79.82
76291;DHT22;65100;46.884;17.410;2022-12-18T06:16:55;-3.36;80.02
76291;DHT22;65100;46.884;17.410;2022-12-18T06:19:21;-3.46;80.41
76291;DHT22;65100;46.884;17.410;2022-12-18T06:21:46;-3.66;81.84
76291;DHT22;65100;46.884;17.410;2022-12-18T06:24:12;-3.70;83.45
76291;DHT22;65100;46.884;17.410;2022-12-18T06:26:40;-3.76;83.91
76291;DHT22;65100;46.884;17.410;2022-12-18T06:29:06;-3.12;80.77
76291;DHT22;65100;46.884;17.410;2022-12-18T06:31:32;-2.99;79.79
76291;DHT22;65100;46.884;17.410;2022-12-18T06:33:57;-2.99;77.67
76291;DHT22;65100;46.884;17.410;2022-12-18T06:36:23;-3.25;79.80
76291;DHT22;65100;46.884;17.410;2022-12-18T06:38:48;-3.11;77.89
76291;DHT22;65100;46.884;17.410;2022-12-18T06:41:18;-3.12;78.30
76291;DHT22;65100;46.884;17.410;2022-12-18T06:43:44;-2.91;78.17
76291;DHT22;65100;46.884;17.410;2022-12-18T06:46:10;-2.57;76.75
76291;DHT22;65100;46.884;17.410;2022-12-18T06:48:35;-2.46;76.67
76291;DHT22;65100;46.884;17.410;2022-12-18T06:51:01;-2.34;75.69
76291;DHT22;65100;46.884;17.410;2022-12-18T06:53:27;-2.30;75.25
76291;DHT22;65100;46.884;17.410;2022-12-18T06:56:08;-2.02;75.16
76291;DHT22;65100;46.884;17.410;2022-12-18T06:58:33;-1.75;74.16
76291;DHT22;65100;46.884;17.410;2022-12-18T07:01:03;-1.63;73.97
76291;DHT22;65100;46.884;17.410;2022-12-18T07:03:29;-1.27;72.80
76291;DHT22;65100;46.884;17.410;2022-12-18T07:05:54;-0.95;71.54
76291;DHT22;65100;46.884;17.410;2022-12-18T07:08:40;-0.87;70.53
76291;DHT22;65100;46.884;17.410;2022-12-18T07:11:06;-0.79;70.02
76291;DHT22;65100;46.884;17.410;2022-12-18T07:13:52;-0.91;70.69
76291;DHT22;65100;46.884;17.410;2022-12-18T07:16:19;-0.85;70.64
76291;DHT22;65100;46.884;17.410;2022-12-18T07:18:45;-0.83;70.96
76291;DHT22;65100;46.884;17.410;2022-12-18T07:21:17;-1.00;72.40
76291;DHT22;65100;46.884;17.410;2022-12-18T07:23:43;-0.64;71.70
76291;DHT22;65100;46.884;17.410;2022-12-18T07:26:11;-0.50;70.84
76291;DHT22;65100;46.884;17.410;2022-12-18T07:28:38;-0.60;71.84
76291;DHT22;65100;46.884;17.410;2022-12-18T07:31:05;-0.06;70.82
76291;DHT22;65100;46.884;17.410;2022-12-18T07:33:33;-1.07;73.72
76291;DHT22;65100;46.884;17.410;2022-12-18T07:35:59;-1.01;73.61
76291;DHT22;65100;46.884;17.410;2022-12-18T07:38:25;-0.70;73.98
76291;DHT22;65100;46.884;17.410;2022-12-18T07:40:50;-0.52;72.89
76291;DHT22;65100;46.884;17.410;2022-12-18T07:43:16;-0.44;72.86
76291;DHT22;65100;46.884;17.410;2022-12-18T07:45:42;-0.71;74.36
76291;DHT22;65100;46.884;17.410;2022-12-18T07:48:08;-0.76;75.23
76291;DHT22;65100;46.884;17.410;2022-12-18T07:50:33;-1.07;76.36
76291;DHT22;65100;46.884;17.410;2022-12-18T07:52:59;-1.01;77.26
76291;DHT22;65100;46.884;17.410;2022-12-18T07:55:29;-0.94;77.44
76291;DHT22;65100;46.884;17.410;2022-12-18T07:57:55;-1.11;78.55
76291;DHT22;65100;46.884;17.410;2022-12-18T08:00:20;-0.74;77.48
76291;DHT22;65100;46.884;17.410;2022-12-18T08:02:46;-0.46;76.80
76291;DHT22;65100;46.884;17.410;2022-12-18T08:05:12;-0.13;75.17
76291;DHT22;65100;46.884;17.410;2022-12-18T08:07:38;-0.19;74.53
76291;DHT22;65100;46.884;17.410;2022-12-18T08:10:04;-0.01;75.09
76291;DHT22;65100;46.884;17.410;2022-12-18T08:12:30;-0.01;74.87
76291;DHT22;65100;46.884;17.410;2022-12-18T08:14:55;0.33;74.25
76291;DHT22;65100;46.884;17.410;2022-12-18T08:17:21;0.37;73.89
76291;DHT22;65100;46.884;17.410;2022-12-18T08:19:46;0.48;73.17
76291;DHT22;65100;46.884;17.410;2022-12-18T08:22:12;0.58;72.86
76291;DHT22;65100;46.884;17.410;2022-12-18T08:24:37;0.62;72.13
76291;DHT22;65100;46.884;17.410;2022-12-18T08:27:02;0.62;72.53
76291;DHT22;65100;46.884;17.410;2022-12-18T08:29:28;0.72;72.39
76291;DHT22;65100;46.884;17.410;2022-12-18T08:31:53;0.73;72.65
76291;DHT22;65100;46.884;17.410;2022-12-18T08:34:19;0.83;74.68
76291;DHT22;65100;46.884;17.410;2022-12-18T08:36:44;0.77;73.62
76291;DHT22;65100;46.884;17.410;2022-12-18T08:39:10;0.79;73.87
76291;DHT22;65100;46.884;17.410;2022-12-18T08:41:35;0.83;73.94
76291;DHT22;65100;46.884;17.410;2022-12-18T08:44:01;0.80;72.99
76291;DHT22;65100;46.884;17.410;2022-12-18T08:46:44;0.84;74.71
76291;DHT22;65100;46.884;17.410;2022-12-18T08:49:11;0.89;75.31
76291;DHT22;65100;46.884;17.410;2022-12-18T08:51:37;0.82;72.73
76291;DHT22;65100;46.884;17.410;2022-12-18T08:54:04;0.80;73.35
76291;DHT22;65100;46.884;17.410;2022-12-18T08:56:30;0.79;73.58
76291;DHT22;65100;46.884;17.410;2022-12-18T08:58:56;0.87;73.07
76291;DHT22;65100;46.884;17.410;2022-12-18T09:01:22;0.93;73.72
76291;DHT22;65100;46.884;17.410;2022-12-18T09:03:50;0.93;72.67
76291;DHT22;65100;46.884;17.410;2022-12-18T09:06:17;1.03;73.93
76291;DHT22;65100;46.884;17.410;2022-12-18T09:08:44;1.07;73.11
76291;DHT22;65100;46.884;17.410;2022-12-18T09:11:18;1.17;73.61
76291;DHT22;65100;46.884;17.410;2022-12-18T09:13:44;1.13;71.35
76291;DHT22;65100;46.884;17.410;2022-12-18T09:16:09;1.12;72.28
76291;DHT22;65100;46.884;17.410;2022-12-18T09:18:35;1.22;72.09
76291;DHT22;65100;46.884;17.410;2022-12-18T09:21:11;1.23;71.72
76291;DHT22;65100;46.884;17.410;2022-12-18T09:23:36;1.44;70.33
76291;DHT22;65100;46.884;17.410;2022-12-18T09:26:02;1.52;71.08
76291;DHT22;65100;46.884;17.410;2022-12-18T09:28:28;1.64;70.95
76291;DHT22;65100;46.884;17.410;2022-12-18T09:30:53;1.70;71.91
76291;DHT22;65100;46.884;17.410;2022-12-18T09:33:19;1.65;70.64
76291;DHT22;65100;46.884;17.410;2022-12-18T09:35:45;1.70;71.99
76291;DHT22;65100;46.884;17.410;2022-12-18T09:38:13;1.70;71.14
76291;DHT22;65100;46.884;17.410;2022-12-18T09:40:44;1.74;71.73
76291;DHT22;65100;46.884;17.410;2022-12-18T09:43:18;1.75;70.37
76291;DHT22;65100;46.884;17.410;2022-12-18T09:45:49;1.79;72.32
76291;DHT22;65100;46.884;17.410;2022-12-18T09:48:27;1.74;69.78
76291;DHT22;65100;46.884;17.410;2022-12-18T09:50:58;1.82;72.57
76291;DHT22;65100;46.884;17.410;2022-12-18T09:53:26;1.86;72.55
76291;DHT22;65100;46.884;17.410;2022-12-18T09:55:54;1.86;71.23
76291;DHT22;65100;46.884;17.410;2022-12-18T09:58:40;1.91;71.75
76291;DHT22;65100;46.884;17.410;2022-12-18T10:01:25;1.85;70.31
76291;DHT22;65100;46.884;17.410;2022-12-18T10:03:52;1.91;71.77
76291;DHT22;65100;46.884;17.410;2022-12-18T10:06:24;1.98;71.74
76291;DHT22;65100;46.884;17.410;2022-12-18T10:09:16;2.01;70.91
76291;DHT22;65100;46.884;17.410;2022-12-18T10:20:37;2.11;68.74
76291;DHT22;65100;46.884;17.410;2022-12-18T10:23:16;2.19;70.78
76291;DHT22;65100;46.884;17.410;2022-12-18T10:25:52;2.21;69.65
76291;DHT22;65100;46.884;17.410;2022-12-18T10:28:19;2.26;69.96
76291;DHT22;65100;46.884;17.410;2022-12-18T10:31:07;2.39;69.41
76291;DHT22;65100;46.884;17.410;2022-12-18T10:33:39;2.40;68.36
76291;DHT22;65100;46.884;17.410;2022-12-18T10:36:04;2.45;68.87
76291;DHT22;65100;46.884;17.410;2022-12-18T10:38:32;2.49;68.11
76291;DHT22;65100;46.884;17.410;2022-12-18T10:41:06;2.53;67.74
76291;DHT22;65100;46.884;17.410;2022-12-18T10:43:39;2.53;66.39
76291;DHT22;65100;46.884;17.410;2022-12-18T10:51:22;2.70;67.65
76291;DHT22;65100;46.884;17.410;2022-12-18T10:53:57;2.75;68.64
76291;DHT22;65100;46.884;17.410;2022-12-18T10:56:26;2.77;67.35
76291;DHT22;65100;46.884;17.410;2022-12-18T10:59:17;2.89;67.88
76291;DHT22;65100;46.884;17.410;2022-12-18T11:01:55;2.73;67.36
76291;DHT22;65100;46.884;17.410;2022-12-18T11:04:23;2.90;67.58
76291;DHT22;65100;46.884;17.410;2022-12-18T11:07:08;2.97;66.52
76291;DHT22;65100;46.884;17.410;2022-12-18T11:09:37;2.99;66.94
76291;DHT22;65100;46.884;17.410;2022-12-18T11:12:23;2.96;65.88
76291;DHT22;65100;46.884;17.410;2022-12-18T11:14:51;3.01;66.37
76291;DHT22;65100;46.884;17.410;2022-12-18T11:17:19;3.07;68.96
76291;DHT22;65100;46.884;17.410;2022-12-18T11:19:52;3.13;67.49
76291;DHT22;65100;46.884;17.410;2022-12-18T11:27:23;3.10;66.23
76291;DHT22;65100;46.884;17.410;2022-12-18T11:29:50;3.10;65.99
76291;DHT22;65100;46.884;17.410;2022-12-18T11:32:41;3.11;64.85
76291;DHT22;65100;46.884;17.410;2022-12-18T11:37:54;3.26;65.59
76291;DHT22;65100;46.884;17.410;2022-12-18T11:40:30;3.26;65.02
76291;DHT22;65100;46.884;17.410;2022-12-18T11:43:07;3.31;65.16
76291;DHT22;65100;46.884;17.410;2022-12-18T11:45:38;3.28;64.93
76291;DHT22;65100;46.884;17.410;2022-12-18T11:48:40;3.39;64.34
76291;DHT22;65100;46.884;17.410;2022-12-18T11:51:19;3.47;64.00
76291;DHT22;65100;46.884;17.410;2022-12-18T11:53:46;3.34;63.30
76291;DHT22;65100;46.884;17.410;2022-12-18T11:56:30;3.41;65.69
76291;DHT22;65100;46.884;17.410;2022-12-18T11:59:26;3.42;62.57
76291;DHT22;65100;46.884;17.410;2022-12-18T12:07:16;3.38;62.86
76291;DHT22;65100;46.884;17.410;2022-12-18T12:09:58;3.45;62.37
76291;DHT22;65100;46.884;17.410;2022-12-18T12:12:32;3.57;62.73
76291;DHT22;65100;46.884;17.410;2022-12-18T12:20:52;3.55;63.35
76291;DHT22;65100;46.884;17.410;2022-12-18T12:29:00;3.58;62.97
76291;DHT22;65100;46.884;17.410;2022-12-18T12:39:33;3.65;62.23
76291;DHT22;65100;46.884;17.410;2022-12-18T12:42:02;3.58;61.99
76291;DHT22;65100;46.884;17.410;2022-12-18T12:44:51;3.65;61.82
76291;DHT22;65100;46.884;17.410;2022-12-18T12:47:28;3.70;61.64
76291;DHT22;65100;46.884;17.410;2022-12-18T12:49:56;3.61;62.60
76291;DHT22;65100;46.884;17.410;2022-12-18T12:52:37;3.68;65.60
76291;DHT22;65100;46.884;17.410;2022-12-18T12:55:07;3.60;64.72
76291;DHT22;65100;46.884;17.410;2022-12-18T12:57:40;3.62;66.11
76291;DHT22;65100;46.884;17.410;2022-12-18T13:05:25;3.58;66.83
76291;DHT22;65100;46.884;17.410;2022-12-18T13:07:57;3.48;65.26
76291;DHT22;65100;46.884;17.410;2022-12-18T13:10:31;3.47;65.01
76291;DHT22;65100;46.884;17.410;2022-12-18T13:13:08;3.44;67.09
76291;DHT22;65100;46.884;17.410;2022-12-18T13:20:46;3.41;66.58
76291;DHT22;65100;46.884;17.410;2022-12-18T13:25:55;3.32;64.66
76291;DHT22;65100;46.884;17.410;2022-12-18T13:28:22;3.34;65.43
76291;DHT22;65100;46.884;17.410;2022-12-18T13:30:56;3.34;65.85
76291;DHT22;65100;46.884;17.410;2022-12-18T13:40:54;3.28;64.75
76291;DHT22;65100;46.884;17.410;2022-12-18T13:45:49;3.17;64.58
76291;DHT22;65100;46.884;17.410;2022-12-18T13:48:26;3.13;65.25
76291;DHT22;65100;46.884;17.410;2022-12-18T13:51:26;3.11;64.92
76291;DHT22;65100;46.884;17.410;2022-12-18T13:53:49;3.20;63.52
76291;DHT22;65100;46.884;17.410;2022-12-18T13:56:22;3.32;66.23
76291;DHT22;65100;46.884;17.410;2022-12-18T13:59:08;3.28;68.70
76291;DHT22;65100;46.884;17.410;2022-12-18T14:01:35;3.20;68.64
76291;DHT22;65100;46.884;17.410;2022-12-18T14:04:21;3.08;68.70
76291;DHT22;65100;46.884;17.410;2022-12-18T14:06:47;3.00;69.53
76291;DHT22;65100;46.884;17.410;2022-12-18T14:09:16;3.03;69.78
76291;DHT22;65100;46.884;17.410;2022-12-18T14:11:51;3.00;69.87
76291;DHT22;65100;46.884;17.410;2022-12-18T14:14:18;2.99;70.79
76291;DHT22;65100;46.884;17.410;2022-12-18T14:16:46;2.87;69.94
76291;DHT22;65100;46.884;17.410;2022-12-18T14:19:15;2.76;69.63
76291;DHT22;65100;46.884;17.410;2022-12-18T14:21:46;2.70;70.77
76291;DHT22;65100;46.884;17.410;2022-12-18T14:24:19;2.63;71.38
76291;DHT22;65100;46.884;17.410;2022-12-18T14:26:46;2.59;70.75
76291;DHT22;65100;46.884;17.410;2022-12-18T14:29:29;2.46;69.44
76291;DHT22;65100;46.884;17.410;2022-12-18T14:32:14;2.42;69.35
76291;DHT22;65100;46.884;17.410;2022-12-18T14:34:52;2.42;68.80
76291;DHT22;65100;46.884;17.410;2022-12-18T14:37:26;2.38;69.09
76291;DHT22;65100;46.884;17.410;2022-12-18T14:39:57;2.26;70.33
76291;DHT22;65100;46.884;17.410;2022-12-18T14:42:24;2.01;71.42
76291;DHT22;65100;46.884;17.410;2022-12-18T14:47:57;1.92;71.63
76291;DHT22;65100;46.884;17.410;2022-12-18T14:50:22;1.75;71.39
76291;DHT22;65100;46.884;17.410;2022-12-18T14:52:48;1.67;71.78
76291;DHT22;65100;46.884;17.410;2022-12-18T14:55:18;1.60;71.89
76291;DHT22;65100;46.884;17.410;2022-12-18T14:57:45;1.57;72.20
76291;DHT22;65100;46.884;17.410;2022-12-18T15:00:17;1.51;73.00
76291;DHT22;65100;46.884;17.410;2022-12-18T15:02:45;1.44;72.58
76291;DHT22;65100;46.884;17.410;2022-12-18T15:05:24;1.33;73.55
76291;DHT22;65100;46.884;17.410;2022-12-18T15:07:54;1.14;74.63
76291;DHT22;65100;46.884;17.410;2022-12-18T15:10:20;1.17;74.74
76291;DHT22;65100;46.884;17.410;2022-12-18T15:12:49;1.22;74.09
76291;DHT22;65100;46.884;17.410;2022-12-18T15:23:05;1.01;74.43
76291;DHT22;65100;46.884;17.410;2022-12-18T15:25:37;0.79;75.29
76291;DHT22;65100;46.884;17.410;2022-12-18T15:28:15;0.65;74.97
76291;DHT22;65100;46.884;17.410;2022-12-18T15:31:05;0.69;74.94
76291;DHT22;65100;46.884;17.410;2022-12-18T15:33:36;0.60;75.30
76291;DHT22;65100;46.884;17.410;2022-12-18T15:36:05;0.58;75.06
76291;DHT22;65100;46.884;17.410;2022-12-18T15:38:31;0.55;74.70
76291;DHT22;65100;46.884;17.410;2022-12-18T15:40:57;0.24;75.63
76291;DHT22;65100;46.884;17.410;2022-12-18T15:43:23;-0.22;77.68
76291;DHT22;65100;46.884;17.410;2022-12-18T15:46:06;0.12;76.46
76291;DHT22;65100;46.884;17.410;2022-12-18T15:48:37;-0.03;77.09
76291;DHT22;65100;46.884;17.410;2022-12-18T15:51:05;0.02;76.81
76291;DHT22;65100;46.884;17.410;2022-12-18T15:53:34;0.11;77.42
76291;DHT22;65100;46.884;17.410;2022-12-18T15:55:59;0.04;77.63
76291;DHT22;65100;46.884;17.410;2022-12-18T15:58:43;-0.02;77.91
76291;DHT22;65100;46.884;17.410;2022-12-18T16:01:10;-0.26;78.24
76291;DHT22;65100;46.884;17.410;2022-12-18T16:03:36;-0.40;78.83
76291;DHT22;65100;46.884;17.410;2022-12-18T16:06:01;-0.36;79.02
76291;DHT22;65100;46.884;17.410;2022-12-18T16:08:28;-0.16;78.07
76291;DHT22;65100;46.884;17.410;2022-12-18T16:10:55;-0.06;76.30
76291;DHT22;65100;46.884;17.410;2022-12-18T16:13:21;-0.18;76.98
76291;DHT22;65100;46.884;17.410;2022-12-18T16:15:47;-0.12;75.95
76291;DHT22;65100;46.884;17.410;2022-12-18T16:18:12;-0.13;76.11
76291;DHT22;65100;46.884;17.410;2022-12-18T16:20:38;-0.26;76.46
76291;DHT22;65100;46.884;17.410;2022-12-18T16:23:04;-0.22;76.88
76291;DHT22;65100;46.884;17.410;2022-12-18T16:25:30;-0.20;76.36
76291;DHT22;65100;46.884;17.410;2022-12-18T16:27:56;-0.34;76.47
76291;DHT22;65100;46.884;17.410;2022-12-18T16:30:27;-0.63;77.87
76291;DHT22;65100;46.884;17.410;2022-12-18T16:32:53;-0.91;78.80
76291;DHT22;65100;46.884;17.410;2022-12-18T16:35:19;-0.79;78.86
76291;DHT22;65100;46.884;17.410;2022-12-18T16:37:44;-0.59;79.07
76291;DHT22;65100;46.884;17.410;2022-12-18T16:40:12;-0.40;77.36
76291;DHT22;65100;46.884;17.410;2022-12-18T16:42:39;-0.44;77.01
76291;DHT22;65100;46.884;17.410;2022-12-18T16:45:07;-0.48;76.90
76291;DHT22;65100;46.884;17.410;2022-12-18T16:47:33;-0.46;76.89
76291;DHT22;65100;46.884;17.410;2022-12-18T16:49:59;-0.50;76.66
76291;DHT22;65100;46.884;17.410;2022-12-18T16:52:25;-0.59;76.61
76291;DHT22;65100;46.884;17.410;2022-12-18T16:54:50;-0.59;76.82
76291;DHT22;65100;46.884;17.410;2022-12-18T16:57:18;-0.70;77.25
76291;DHT22;65100;46.884;17.410;2022-12-18T16:59:44;-0.74;77.31
76291;DHT22;65100;46.884;17.410;2022-12-18T17:02:22;-0.67;77.34
76291;DHT22;65100;46.884;17.410;2022-12-18T17:04:47;-0.74;77.34
76291;DHT22;65100;46.884;17.410;2022-12-18T17:07:14;-0.87;77.85
76291;DHT22;65100;46.884;17.410;2022-12-18T17:09:40;-0.77;78.04
76291;DHT22;65100;46.884;17.410;2022-12-18T17:12:07;-0.74;77.99
76291;DHT22;65100;46.884;17.410;2022-12-18T17:14:33;-0.83;77.37
76291;DHT22;65100;46.884;17.410;2022-12-18T17:16:59;-0.91;77.27
76291;DHT22;65100;46.884;17.410;2022-12-18T17:19:25;-1.12;77.05
76291;DHT22;65100;46.884;17.410;2022-12-18T17:21:51;-1.87;79.45
76291;DHT22;65100;46.884;17.410;2022-12-18T17:24:17;-2.22;82.32
76291;DHT22;65100;46.884;17.410;2022-12-18T17:26:43;-1.72;80.63
76291;DHT22;65100;46.884;17.410;2022-12-18T17:29:14;-1.68;79.96
76291;DHT22;65100;46.884;17.410;2022-12-18T17:31:40;-2.26;82.35
76291;DHT22;65100;46.884;17.410;2022-12-18T17:34:05;-2.13;82.32